sensor_id;sensor_type;location;lat;lon;timestamp;pressure;altitude;pressure_sealevel;temperature;humidity
36062;BME280;22123;52.412;20.970;2023-11-22T00:00:43;101326.94;;;-2.91;100.00
36062;BME280;22123;52.412;20.970;2023-11-22T00:03:09;101332.03;;;-2.87;100.00
36062;BME280;22123;52.412;20.970;2023-11-22T00:05:35;101369.19;;;-2.72;100.00
36062;BME280;22123;52.412;20.970;2023-11-22T00:08:00;101342.69;;;-2.90;100.00
36062;BME280;22123;52.412;20.970;2023-11-22T00:10:26;101340.88;;;-2.88;100.00
36062;BME280;22123;52.412;20.970;2023-11-22T00:12:52;101365.00;;;-2.76;100.00
36062;BME280;22123;52.412;20.970;2023-11-22T00:15:18;101356.47;;;-2.83;100.00
36062;BME280;22123;52.412;20.970;2023-11-22T00:17:45;101336.69;;;-2.93;100.00
36062;BME280;22123;52.412;20.970;2023-11-22T00:20:11;101348.28;;;-2.98;100.00
36062;BME280;22123;52.412;20.970;2023-11-22T00:22:37;101379.69;;;-2.71;100.00
36062;BME280;22123;52.412;20.970;2023-11-22T00:25:03;101377.28;;;-2.77;100.00
36062;BME280;22123;52.412;20.970;2023-11-22T00:27:30;101346.50;;;-2.97;100.00
36062;BME280;22123;52.412;20.970;2023-11-22T00:29:56;101380.19;;;-2.83;100.00
36062;BME280;22123;52.412;20.970;2023-11-22T00:32:21;101380.13;;;-2.82;100.00
36062;BME280;22123;52.412;20.970;2023-11-22T00:34:47;101410.03;;;-2.60;100.00
36062;BME280;22123;52.412;20.970;2023-11-22T00:37:13;101376.84;;;-2.87;100.00
36062;BME280;22123;52.412;20.970;2023-11-22T00:39:39;101408.78;;;-2.74;100.00
36062;BME280;22123;52.412;20.970;2023-11-22T00:42:05;101353.81;;;-3.04;100.00
36062;BME280;22123;52.412;20.970;2023-11-22T00:44:31;101351.25;;;-3.05;100.00
36062;BME280;22123;52.412;20.970;2023-11-22T00:46:57;101420.16;;;-2.72;100.00
36062;BME280;22123;52.412;20.970;2023-11-22T00:49:23;101325.91;;;-3.30;100.00
36062;BME280;22123;52.412;20.970;2023-11-22T00:51:49;101387.94;;;-3.01;100.00
36062;BME280;22123;52.412;20.970;2023-11-22T00:54:15;101376.34;;;-3.19;100.00
36062;BME280;22123;52.412;20.970;2023-11-22T00:56:41;101379.84;;;-3.18;100.00
36062;BME280;22123;52.412;20.970;2023-11-22T00:59:07;101375.75;;;-3.25;100.00
36062;BME280;22123;52.412;20.970;2023-11-22T01:01:33;101393.69;;;-3.13;100.00
36062;BME280;22123;52.412;20.970;2023-11-22T01:03:59;101405.81;;;-3.09;100.00
36062;BME280;22123;52.412;20.970;2023-11-22T01:06:25;101444.81;;;-2.95;100.00
36062;BME280;22123;52.412;20.970;2023-11-22T01:08:51;101435.69;;;-3.08;100.00
36062;BME280;22123;52.412;20.970;2023-11-22T01:11:16;101422.50;;;-3.08;100.00
36062;BME280;22123;52.412;20.970;2023-11-22T01:13:42;101376.22;;;-3.38;100.00
36062;BME280;22123;52.412;20.970;2023-11-22T01:16:09;101410.78;;;-3.23;100.00
36062;BME280;22123;52.412;20.970;2023-11-22T01:18:36;101385.22;;;-3.43;100.00
36062;BME280;22123;52.412;20.970;2023-11-22T01:21:02;101419.63;;;-3.24;100.00
36062;BME280;22123;52.412;20.970;2023-11-22T01:23:30;101442.69;;;-3.09;100.00
36062;BME280;22123;52.412;20.970;2023-11-22T01:25:56;101410.31;;;-3.33;100.00
36062;BME280;22123;52.412;20.970;2023-11-22T01:28:22;101397.06;;;-3.32;100.00
36062;BME280;22123;52.412;20.970;2023-11-22T01:30:48;101408.31;;;-3.28;100.00
36062;BME280;22123;52.412;20.970;2023-11-22T01:33:13;101422.19;;;-3.23;100.00
36062;BME280;22123;52.412;20.970;2023-11-22T01:35:39;101454.13;;;-3.08;100.00
36062;BME280;22123;52.412;20.970;2023-11-22T01:38:05;101407.81;;;-3.38;100.00
36062;BME280;22123;52.412;20.970;2023-11-22T01:40:31;101419.06;;;-3.33;100.00
36062;BME280;22123;52.412;20.970;2023-11-22T01:42:58;101391.69;;;-3.52;100.00
36062;BME280;22123;52.412;20.970;2023-11-22T01:45:24;101435.44;;;-3.26;100.00
36062;BME280;22123;52.412;20.970;2023-11-22T01:47:51;101418.53;;;-3.42;100.00
36062;BME280;22123;52.412;20.970;2023-11-22T01:50:17;101424.78;;;-3.45;100.00
36062;BME280;22123;52.412;20.970;2023-11-22T01:52:43;101408.59;;;-3.58;100.00
36062;BME280;22123;52.412;20.970;2023-11-22T01:55:09;101452.59;;;-3.38;100.00
36062;BME280;22123;52.412;20.970;2023-11-22T01:57:35;101422.44;;;-3.53;100.00
36062;BME280;22123;52.412;20.970;2023-11-22T02:00:02;101417.19;;;-3.53;100.00
36062;BME280;22123;52.412;20.970;2023-11-22T02:02:29;101477.50;;;-3.23;100.00
36062;BME280;22123;52.412;20.970;2023-11-22T02:04:55;101478.28;;;-3.21;100.00
36062;BME280;22123;52.412;20.970;2023-11-22T02:07:21;101437.22;;;-3.48;100.00
36062;BME280;22123;52.412;20.970;2023-11-22T02:09:47;101444.88;;;-3.42;100.00
36062;BME280;22123;52.412;20.970;2023-11-22T02:12:13;101434.69;;;-3.52;100.00
36062;BME280;22123;52.412;20.970;2023-11-22T02:14:39;101436.34;;;-3.49;100.00
36062;BME280;22123;52.412;20.970;2023-11-22T02:17:05;101441.78;;;-3.54;100.00
36062;BME280;22123;52.412;20.970;2023-11-22T02:19:30;101463.47;;;-3.47;100.00
36062;BME280;22123;52.412;20.970;2023-11-22T02:21:56;101438.47;;;-3.59;100.00
36062;BME280;22123;52.412;20.970;2023-11-22T02:24:22;101454.63;;;-3.44;100.00
36062;BME280;22123;52.412;20.970;2023-11-22T02:26:48;101441.66;;;-3.51;100.00
36062;BME280;22123;52.412;20.970;2023-11-22T02:29:14;101445.16;;;-3.50;100.00
36062;BME280;22123;52.412;20.970;2023-11-22T02:31:43;101450.56;;;-3.53;100.00
36062;BME280;22123;52.412;20.970;2023-11-22T02:34:09;101460.31;;;-3.57;100.00
36062;BME280;22123;52.412;20.970;2023-11-22T02:36:35;101474.97;;;-3.50;100.00
36062;BME280;22123;52.412;20.970;2023-11-22T02:39:01;101461.41;;;-3.62;100.00
36062;BME280;22123;52.412;20.970;2023-11-22T02:41:27;101467.69;;;-3.67;100.00
36062;BME280;22123;52.412;20.970;2023-11-22T02:43:53;101417.28;;;-4.03;100.00
36062;BME280;22123;52.412;20.970;2023-11-22T02:46:19;101461.22;;;-3.81;100.00
36062;BME280;22123;52.412;20.970;2023-11-22T02:48:45;101485.63;;;-3.76;100.00
36062;BME280;22123;52.412;20.970;2023-11-22T02:51:11;101478.91;;;-3.85;100.00
36062;BME280;22123;52.412;20.970;2023-11-22T02:53:36;101474.00;;;-3.96;100.00
36062;BME280;22123;52.412;20.970;2023-11-22T02:56:02;101460.47;;;-4.10;100.00
36062;BME280;22123;52.412;20.970;2023-11-22T02:58:29;101498.88;;;-4.05;100.00
36062;BME280;22123;52.412;20.970;2023-11-22T03:00:55;101539.47;;;-3.87;100.00
36062;BME280;22123;52.412;20.970;2023-11-22T03:03:21;101506.22;;;-4.14;100.00
36062;BME280;22123;52.412;20.970;2023-11-22T03:05:47;101509.88;;;-4.18;100.00
36062;BME280;22123;52.412;20.970;2023-11-22T03:08:13;101487.06;;;-4.45;100.00
36062;BME280;22123;52.412;20.970;2023-11-22T03:10:39;101522.56;;;-4.31;100.00
36062;BME280;22123;52.412;20.970;2023-11-22T03:13:04;101523.13;;;-4.48;100.00
36062;BME280;22123;52.412;20.970;2023-11-22T03:15:30;101559.50;;;-4.36;100.00
36062;BME280;22123;52.412;20.970;2023-11-22T03:17:56;101511.72;;;-4.76;100.00
36062;BME280;22123;52.412;20.970;2023-11-22T03:20:22;101534.50;;;-4.76;100.00
36062;BME280;22123;52.412;20.970;2023-11-22T03:22:48;101478.66;;;-5.11;100.00
36062;BME280;22123;52.412;20.970;2023-11-22T03:25:14;101526.91;;;-4.85;100.00
36062;BME280;22123;52.412;20.970;2023-11-22T03:27:40;101533.50;;;-4.72;100.00
36062;BME280;22123;52.412;20.970;2023-11-22T03:30:06;101580.94;;;-4.48;100.00
36062;BME280;22123;52.412;20.970;2023-11-22T03:32:32;101542.50;;;-4.81;100.00
36062;BME280;22123;52.412;20.970;2023-11-22T03:34:58;101510.94;;;-5.08;100.00
36062;BME280;22123;52.412;20.970;2023-11-22T03:37:23;101571.19;;;-4.73;100.00
36062;BME280;22123;52.412;20.970;2023-11-22T03:39:49;101549.00;;;-4.93;100.00
36062;BME280;22123;52.412;20.970;2023-11-22T03:42:16;101553.66;;;-5.01;100.00
36062;BME280;22123;52.412;20.970;2023-11-22T03:44:42;101577.78;;;-4.90;100.00
36062;BME280;22123;52.412;20.970;2023-11-22T03:47:15;101571.94;;;-4.98;100.00
36062;BME280;22123;52.412;20.970;2023-11-22T03:49:41;101622.75;;;-4.69;100.00
36062;BME280;22123;52.412;20.970;2023-11-22T03:52:07;101587.59;;;-4.95;100.00
36062;BME280;22123;52.412;20.970;2023-11-22T03:54:34;101586.34;;;-5.11;100.00
36062;BME280;22123;52.412;20.970;2023-11-22T03:56:59;101641.50;;;-4.81;100.00
36062;BME280;22123;52.412;20.970;2023-11-22T03:59:25;101640.94;;;-4.93;100.00
36062;BME280;22123;52.412;20.970;2023-11-22T04:01:51;101657.63;;;-4.94;100.00
36062;BME280;22123;52.412;20.970;2023-11-22T04:04:17;101637.16;;;-5.14;100.00
36062;BME280;22123;52.412;20.970;2023-11-22T04:06:43;101615.97;;;-5.39;100.00
36062;BME280;22123;52.412;20.970;2023-11-22T04:09:09;101634.03;;;-5.27;100.00
36062;BME280;22123;52.412;20.970;2023-11-22T04:11:35;101635.78;;;-5.27;100.00
36062;BME280;22123;52.412;20.970;2023-11-22T04:14:01;101618.53;;;-5.37;100.00
36062;BME280;22123;52.412;20.970;2023-11-22T04:16:26;101619.66;;;-5.46;100.00
36062;BME280;22123;52.412;20.970;2023-11-22T04:18:52;101637.81;;;-5.37;100.00
36062;BME280;22123;52.412;20.970;2023-11-22T04:21:18;101680.97;;;-5.16;100.00
36062;BME280;22123;52.412;20.970;2023-11-22T04:23:44;101622.38;;;-5.49;100.00
36062;BME280;22123;52.412;20.970;2023-11-22T04:26:10;101631.03;;;-5.46;100.00
36062;BME280;22123;52.412;20.970;2023-11-22T04:28:36;101699.97;;;-5.06;100.00
36062;BME280;22123;52.412;20.970;2023-11-22T04:31:02;101684.22;;;-5.06;100.00
36062;BME280;22123;52.412;20.970;2023-11-22T04:33:28;101648.16;;;-5.32;100.00
36062;BME280;22123;52.412;20.970;2023-11-22T04:35:54;101694.00;;;-5.11;100.00
36062;BME280;22123;52.412;20.970;2023-11-22T04:38:20;101652.56;;;-5.33;100.00
36062;BME280;22123;52.412;20.970;2023-11-22T04:40:46;101678.53;;;-5.22;100.00
36062;BME280;22123;52.412;20.970;2023-11-22T04:43:12;101646.91;;;-5.50;100.00
36062;BME280;22123;52.412;20.970;2023-11-22T04:45:37;101658.13;;;-5.45;100.00
36062;BME280;22123;52.412;20.970;2023-11-22T04:48:04;101707.34;;;-5.20;100.00
36062;BME280;22123;52.412;20.970;2023-11-22T04:50:30;101583.50;;;-6.01;100.00
36062;BME280;22123;52.412;20.970;2023-11-22T04:52:56;101728.63;;;-5.30;100.00
36062;BME280;22123;52.412;20.970;2023-11-22T04:55:22;101679.53;;;-5.62;100.00
36062;BME280;22123;52.412;20.970;2023-11-22T04:57:49;101666.03;;;-5.81;100.00
36062;BME280;22123;52.412;20.970;2023-11-22T05:00:15;101738.47;;;-5.39;100.00
36062;BME280;22123;52.412;20.970;2023-11-22T05:02:41;101735.97;;;-5.44;100.00
36062;BME280;22123;52.412;20.970;2023-11-22T05:05:07;101689.47;;;-5.75;100.00
36062;BME280;22123;52.412;20.970;2023-11-22T05:07:33;101709.38;;;-5.65;100.00
36062;BME280;22123;52.412;20.970;2023-11-22T05:09:59;101703.53;;;-5.76;100.00
36062;BME280;22123;52.412;20.970;2023-11-22T05:12:25;101689.69;;;-5.83;100.00
36062;BME280;22123;52.412;20.970;2023-11-22T05:14:51;101712.28;;;-5.77;100.00
36062;BME280;22123;52.412;20.970;2023-11-22T05:17:17;101693.34;;;-5.90;100.00
36062;BME280;22123;52.412;20.970;2023-11-22T05:19:42;101696.97;;;-5.96;100.00
36062;BME280;22123;52.412;20.970;2023-11-22T05:22:08;101683.19;;;-6.02;100.00
36062;BME280;22123;52.412;20.970;2023-11-22T05:24:34;101695.28;;;-5.97;100.00
36062;BME280;22123;52.412;20.970;2023-11-22T05:27:00;101692.00;;;-6.05;100.00
36062;BME280;22123;52.412;20.970;2023-11-22T05:29:26;101725.19;;;-6.04;100.00
36062;BME280;22123;52.412;20.970;2023-11-22T05:31:52;101731.56;;;-6.17;100.00
36062;BME280;22123;52.412;20.970;2023-11-22T05:34:18;101768.94;;;-6.07;100.00
36062;BME280;22123;52.412;20.970;2023-11-22T05:36:44;101721.72;;;-6.47;100.00
36062;BME280;22123;52.412;20.970;2023-11-22T05:39:10;101678.56;;;-6.71;100.00
36062;BME280;22123;52.412;20.970;2023-11-22T05:41:36;101733.16;;;-6.51;100.00
36062;BME280;22123;52.412;20.970;2023-11-22T05:44:02;101744.59;;;-6.55;100.00
36062;BME280;22123;52.412;20.970;2023-11-22T05:46:27;101747.31;;;-6.59;100.00
36062;BME280;22123;52.412;20.970;2023-11-22T05:48:54;101771.66;;;-6.53;100.00
36062;BME280;22123;52.412;20.970;2023-11-22T05:51:20;101761.47;;;-6.68;100.00
36062;BME280;22123;52.412;20.970;2023-11-22T05:53:46;101771.03;;;-6.66;100.00
36062;BME280;22123;52.412;20.970;2023-11-22T05:56:13;101791.78;;;-6.56;100.00
36062;BME280;22123;52.412;20.970;2023-11-22T05:58:39;101768.56;;;-6.75;100.00
36062;BME280;22123;52.412;20.970;2023-11-22T06:01:05;101762.47;;;-6.75;100.00
36062;BME280;22123;52.412;20.970;2023-11-22T06:03:31;101703.94;;;-7.18;100.00
36062;BME280;22123;52.412;20.970;2023-11-22T06:05:58;101792.91;;;-6.68;100.00
36062;BME280;22123;52.412;20.970;2023-11-22T06:08:24;101793.84;;;-6.72;100.00
36062;BME280;22123;52.412;20.970;2023-11-22T06:10:50;101787.09;;;-6.84;100.00
36062;BME280;22123;52.412;20.970;2023-11-22T06:13:16;101775.94;;;-6.95;100.00
36062;BME280;22123;52.412;20.970;2023-11-22T06:15:42;101786.31;;;-6.91;100.00
36062;BME280;22123;52.412;20.970;2023-11-22T06:18:08;101794.22;;;-6.94;100.00
36062;BME280;22123;52.412;20.970;2023-11-22T06:20:33;101757.97;;;-7.16;100.00
36062;BME280;22123;52.412;20.970;2023-11-22T06:22:59;101800.44;;;-7.00;100.00
36062;BME280;22123;52.412;20.970;2023-11-22T06:25:25;101811.75;;;-6.96;100.00
36062;BME280;22123;52.412;20.970;2023-11-22T06:27:51;101777.28;;;-7.23;100.00
36062;BME280;22123;52.412;20.970;2023-11-22T06:30:17;101840.44;;;-6.90;100.00
36062;BME280;22123;52.412;20.970;2023-11-22T06:32:43;101801.66;;;-7.19;100.00
36062;BME280;22123;52.412;20.970;2023-11-22T06:35:09;101807.66;;;-7.12;100.00
36062;BME280;22123;52.412;20.970;2023-11-22T06:37:36;101846.53;;;-6.88;100.00
36062;BME280;22123;52.412;20.970;2023-11-22T06:40:02;101825.00;;;-7.07;100.00
36062;BME280;22123;52.412;20.970;2023-11-22T06:42:28;101809.34;;;-7.10;100.00
36062;BME280;22123;52.412;20.970;2023-11-22T06:44:54;101818.06;;;-7.08;100.00
36062;BME280;22123;52.412;20.970;2023-11-22T06:47:20;101818.06;;;-7.08;100.00
36062;BME280;22123;52.412;20.970;2023-11-22T06:49:45;101846.47;;;-6.85;100.00
36062;BME280;22123;52.412;20.970;2023-11-22T06:52:11;101845.63;;;-6.88;100.00
36062;BME280;22123;52.412;20.970;2023-11-22T06:54:37;101791.06;;;-7.11;100.00
36062;BME280;22123;52.412;20.970;2023-11-22T06:57:03;101797.19;;;-7.14;100.00
36062;BME280;22123;52.412;20.970;2023-11-22T06:59:29;101806.63;;;-7.02;100.00
36062;BME280;22123;52.412;20.970;2023-11-22T07:01:55;101834.25;;;-6.86;100.00
36062;BME280;22123;52.412;20.970;2023-11-22T07:04:21;101862.88;;;-6.76;100.00
36062;BME280;22123;52.412;20.970;2023-11-22T07:06:47;101849.88;;;-6.81;100.00
36062;BME280;22123;52.412;20.970;2023-11-22T07:09:13;101803.16;;;-7.06;100.00
36062;BME280;22123;52.412;20.970;2023-11-22T07:11:39;101844.50;;;-6.72;100.00
36062;BME280;22123;52.412;20.970;2023-11-22T07:14:05;101878.88;;;-6.42;100.00
36062;BME280;22123;52.412;20.970;2023-11-22T07:16:32;101848.47;;;-6.52;100.00
36062;BME280;22123;52.412;20.970;2023-11-22T07:18:58;101864.81;;;-6.38;100.00
36062;BME280;22123;52.412;20.970;2023-11-22T07:21:24;101841.34;;;-6.44;100.00
36062;BME280;22123;52.412;20.970;2023-11-22T07:23:49;101849.81;;;-6.30;100.00
36062;BME280;22123;52.412;20.970;2023-11-22T07:26:15;101855.75;;;-6.20;100.00
36062;BME280;22123;52.412;20.970;2023-11-22T07:28:41;101903.19;;;-5.91;100.00
36062;BME280;22123;52.412;20.970;2023-11-22T07:31:08;101865.06;;;-6.05;100.00
36062;BME280;22123;52.412;20.970;2023-11-22T07:33:34;101853.56;;;-5.99;100.00
36062;BME280;22123;52.412;20.970;2023-11-22T07:36:00;101875.91;;;-5.83;100.00
36062;BME280;22123;52.412;20.970;2023-11-22T07:38:26;101842.00;;;-5.90;100.00
36062;BME280;22123;52.412;20.970;2023-11-22T07:40:52;101879.06;;;-5.67;100.00
36062;BME280;22123;52.412;20.970;2023-11-22T07:43:18;101883.19;;;-5.55;100.00
36062;BME280;22123;52.412;20.970;2023-11-22T07:45:44;101879.44;;;-5.45;100.00
36062;BME280;22123;52.412;20.970;2023-11-22T07:48:10;101849.03;;;-5.53;100.00
36062;BME280;22123;52.412;20.970;2023-11-22T07:50:39;101866.19;;;-5.37;100.00
36062;BME280;22123;52.412;20.970;2023-11-22T07:53:05;101897.03;;;-5.09;100.00
36062;BME280;22123;52.412;20.970;2023-11-22T07:55:31;101896.94;;;-5.06;100.00
36062;BME280;22123;52.412;20.970;2023-11-22T07:57:57;101877.84;;;-5.11;100.00
36062;BME280;22123;52.412;20.970;2023-11-22T08:00:23;101923.44;;;-4.78;100.00
36062;BME280;22123;52.412;20.970;2023-11-22T08:02:49;101889.47;;;-4.87;100.00
36062;BME280;22123;52.412;20.970;2023-11-22T08:05:16;101904.84;;;-4.70;100.00
36062;BME280;22123;52.412;20.970;2023-11-22T08:07:42;101924.69;;;-4.58;100.00
36062;BME280;22123;52.412;20.970;2023-11-22T08:10:08;101908.34;;;-4.71;100.00
36062;BME280;22123;52.412;20.970;2023-11-22T08:12:37;101900.56;;;-4.74;100.00
36062;BME280;22123;52.412;20.970;2023-11-22T08:15:03;101939.19;;;-4.43;100.00
36062;BME280;22123;52.412;20.970;2023-11-22T08:17:29;101896.69;;;-4.61;100.00
36062;BME280;22123;52.412;20.970;2023-11-22T08:19:55;101920.06;;;-4.48;100.00
36062;BME280;22123;52.412;20.970;2023-11-22T08:22:21;101900.94;;;-4.55;100.00
36062;BME280;22123;52.412;20.970;2023-11-22T08:24:47;101909.31;;;-4.41;100.00
36062;BME280;22123;52.412;20.970;2023-11-22T08:27:13;101934.25;;;-4.21;100.00
36062;BME280;22123;52.412;20.970;2023-11-22T08:29:39;101957.38;;;-4.01;100.00
36062;BME280;22123;52.412;20.970;2023-11-22T08:32:05;101920.78;;;-4.10;100.00
36062;BME280;22123;52.412;20.970;2023-11-22T08:34:31;101921.50;;;-4.04;100.00
36062;BME280;22123;52.412;20.970;2023-11-22T08:36:57;101905.84;;;-4.08;100.00
36062;BME280;22123;52.412;20.970;2023-11-22T08:39:23;101901.25;;;-4.02;100.00
36062;BME280;22123;52.412;20.970;2023-11-22T08:41:48;101904.34;;;-3.87;100.00
36062;BME280;22123;52.412;20.970;2023-11-22T08:44:14;101954.25;;;-3.53;100.00
36062;BME280;22123;52.412;20.970;2023-11-22T08:46:40;101950.88;;;-3.58;100.00
36062;BME280;22123;52.412;20.970;2023-11-22T08:49:06;101972.47;;;-3.45;100.00
36062;BME280;22123;52.412;20.970;2023-11-22T08:51:32;101967.94;;;-3.40;100.00
36062;BME280;22123;52.412;20.970;2023-11-22T08:53:58;101935.06;;;-3.56;100.00
36062;BME280;22123;52.412;20.970;2023-11-22T08:56:24;101931.66;;;-3.60;100.00
36062;BME280;22123;52.412;20.970;2023-11-22T08:58:50;101937.78;;;-3.59;100.00
36062;BME280;22123;52.412;20.970;2023-11-22T09:01:15;101989.59;;;-3.30;100.00
36062;BME280;22123;52.412;20.970;2023-11-22T09:03:43;101952.28;;;-3.44;100.00
36062;BME280;22123;52.412;20.970;2023-11-22T09:06:09;101952.38;;;-3.47;100.00
36062;BME280;22123;52.412;20.970;2023-11-22T09:08:34;101972.16;;;-3.34;100.00
36062;BME280;22123;52.412;20.970;2023-11-22T09:11:01;101950.41;;;-3.41;100.00
36062;BME280;22123;52.412;20.970;2023-11-22T09:13:27;101948.66;;;-3.42;100.00
36062;BME280;22123;52.412;20.970;2023-11-22T09:15:53;101985.78;;;-3.20;100.00
36062;BME280;22123;52.412;20.970;2023-11-22T09:18:19;101953.06;;;-3.42;100.00
36062;BME280;22123;52.412;20.970;2023-11-22T09:20:44;101980.31;;;-3.13;100.00
36062;BME280;22123;52.412;20.970;2023-11-22T09:23:10;101922.34;;;-3.42;100.00
36062;BME280;22123;52.412;20.970;2023-11-22T09:25:37;101943.59;;;-3.18;100.00
36062;BME280;22123;52.412;20.970;2023-11-22T09:28:03;101975.44;;;-2.98;100.00
36062;BME280;22123;52.412;20.970;2023-11-22T09:30:31;101965.03;;;-3.02;100.00
36062;BME280;22123;52.412;20.970;2023-11-22T09:33:04;101964.84;;;-2.96;100.00
36062;BME280;22123;52.412;20.970;2023-11-22T09:35:31;101962.00;;;-2.90;100.00
36062;BME280;22123;52.412;20.970;2023-11-22T09:38:00;101929.34;;;-3.12;100.00
36062;BME280;22123;52.412;20.970;2023-11-22T09:40:27;101962.75;;;-2.85;100.00
36062;BME280;22123;52.412;20.970;2023-11-22T09:42:53;101915.41;;;-3.16;100.00
36062;BME280;22123;52.412;20.970;2023-11-22T09:45:19;101958.22;;;-2.81;100.00
36062;BME280;22123;52.412;20.970;2023-11-22T09:47:46;101919.66;;;-2.84;100.00
36062;BME280;22123;52.412;20.970;2023-11-22T09:50:23;101943.53;;;-2.62;100.00
36062;BME280;22123;52.412;20.970;2023-11-22T09:52:51;101903.41;;;-2.71;100.00
36062;BME280;22123;52.412;20.970;2023-11-22T09:55:18;101922.66;;;-2.68;100.00
36062;BME280;22123;52.412;20.970;2023-11-22T09:57:44;101938.41;;;-2.66;100.00
36062;BME280;22123;52.412;20.970;2023-11-22T10:00:11;101907.69;;;-2.94;100.00
36062;BME280;22123;52.412;20.970;2023-11-22T10:02:37;101914.50;;;-2.87;100.00
36062;BME280;22123;52.412;20.970;2023-11-22T10:05:03;101932.56;;;-2.76;100.00
36062;BME280;22123;52.412;20.970;2023-11-22T10:07:29;101903.84;;;-2.84;100.00
36062;BME280;22123;52.412;20.970;2023-11-22T10:09:55;101900.47;;;-2.89;100.00
36062;BME280;22123;52.412;20.970;2023-11-22T10:12:21;101893.41;;;-2.87;100.00
36062;BME280;22123;52.412;20.970;2023-11-22T10:14:47;101907.16;;;-2.78;100.00
36062;BME280;22123;52.412;20.970;2023-11-22T10:17:13;101951.84;;;-2.47;100.00
36062;BME280;22123;52.412;20.970;2023-11-22T10:19:39;101913.56;;;-2.59;100.00
36062;BME280;22123;52.412;20.970;2023-11-22T10:22:07;101933.13;;;-2.39;100.00
36062;BME280;22123;52.412;20.970;2023-11-22T10:24:34;101921.59;;;-2.37;100.00
36062;BME280;22123;52.412;20.970;2023-11-22T10:27:01;101945.56;;;-2.18;100.00
36062;BME280;22123;52.412;20.970;2023-11-22T10:29:28;101928.28;;;-2.27;100.00
36062;BME280;22123;52.412;20.970;2023-11-22T10:31:54;101968.84;;;-2.04;100.00
36062;BME280;22123;52.412;20.970;2023-11-22T10:34:23;101919.34;;;-2.22;100.00
36062;BME280;22123;52.412;20.970;2023-11-22T10:36:49;101921.94;;;-2.21;100.00
36062;BME280;22123;52.412;20.970;2023-11-22T10:39:22;101914.84;;;-2.20;100.00
36062;BME280;22123;52.412;20.970;2023-11-22T10:41:48;101940.66;;;-2.03;100.00
36062;BME280;22123;52.412;20.970;2023-11-22T10:44:15;101947.50;;;-1.98;100.00
36062;BME280;22123;52.412;20.970;2023-11-22T10:46:41;101955.19;;;-1.92;100.00
36062;BME280;22123;52.412;20.970;2023-11-22T10:49:08;101900.41;;;-2.08;100.00
36062;BME280;22123;52.412;20.970;2023-11-22T10:51:35;101884.50;;;-2.32;100.00
36062;BME280;22123;52.412;20.970;2023-11-22T10:54:05;101877.50;;;-2.33;100.00
36062;BME280;22123;52.412;20.970;2023-11-22T10:56:39;101932.41;;;-1.94;100.00
36062;BME280;22123;52.412;20.970;2023-11-22T10:59:09;101897.44;;;-2.24;100.00
36062;BME280;22123;52.412;20.970;2023-11-22T11:01:36;101952.44;;;-1.88;100.00
36062;BME280;22123;52.412;20.970;2023-11-22T11:06:32;101902.63;;;-1.98;100.00
36062;BME280;22123;52.412;20.970;2023-11-22T11:09:03;101927.81;;;-1.65;100.00
36062;BME280;22123;52.412;20.970;2023-11-22T11:11:30;101881.81;;;-1.82;100.00
36062;BME280;22123;52.412;20.970;2023-11-22T11:13:57;101898.72;;;-1.64;100.00
36062;BME280;22123;52.412;20.970;2023-11-22T11:16:23;101934.44;;;-1.30;100.00
36062;BME280;22123;52.412;20.970;2023-11-22T11:18:50;101878.22;;;-1.57;100.00
36062;BME280;22123;52.412;20.970;2023-11-22T11:21:16;101900.59;;;-1.44;100.00
36062;BME280;22123;52.412;20.970;2023-11-22T11:23:43;101914.00;;;-1.26;100.00
36062;BME280;22123;52.412;20.970;2023-11-22T11:26:14;101913.53;;;-1.14;100.00
36062;BME280;22123;52.412;20.970;2023-11-22T11:28:51;101870.88;;;-1.05;100.00
36062;BME280;22123;52.412;20.970;2023-11-22T11:31:20;101896.72;;;-0.68;100.00
36062;BME280;22123;52.412;20.970;2023-11-22T11:36:26;101875.75;;;-0.73;100.00
36062;BME280;22123;52.412;20.970;2023-11-22T11:38:53;101887.94;;;-0.69;100.00
36062;BME280;22123;52.412;20.970;2023-11-22T11:41:27;101917.44;;;-0.58;100.00
36062;BME280;22123;52.412;20.970;2023-11-22T11:43:55;101881.28;;;-1.00;100.00
36062;BME280;22123;52.412;20.970;2023-11-22T11:46:21;101915.69;;;-0.79;100.00
36062;BME280;22123;52.412;20.970;2023-11-22T11:48:51;101900.03;;;-0.63;100.00
36062;BME280;22123;52.412;20.970;2023-11-22T11:51:19;101875.06;;;-0.78;100.00
36062;BME280;22123;52.412;20.970;2023-11-22T11:53:45;101862.38;;;-0.91;100.00
36062;BME280;22123;52.412;20.970;2023-11-22T11:56:11;101863.97;;;-0.86;100.00
36062;BME280;22123;52.412;20.970;2023-11-22T11:58:38;101894.06;;;-0.68;100.00
36062;BME280;22123;52.412;20.970;2023-11-22T12:01:07;101863.03;;;-0.85;100.00
36062;BME280;22123;52.412;20.970;2023-11-22T12:03:33;101883.94;;;-0.79;100.00
36062;BME280;22123;52.412;20.970;2023-11-22T12:06:01;101855.78;;;-0.80;100.00
36062;BME280;22123;52.412;20.970;2023-11-22T12:08:26;101859.47;;;-0.64;100.00
36062;BME280;22123;52.412;20.970;2023-11-22T12:10:56;101858.22;;;-0.55;100.00
36062;BME280;22123;52.412;20.970;2023-11-22T12:13:22;101894.28;;;-0.32;100.00
36062;BME280;22123;52.412;20.970;2023-11-22T12:15:48;101866.16;;;-0.55;100.00
36062;BME280;22123;52.412;20.970;2023-11-22T12:18:14;101890.25;;;-0.41;100.00
36062;BME280;22123;52.412;20.970;2023-11-22T12:20:39;101899.63;;;-0.33;100.00
36062;BME280;22123;52.412;20.970;2023-11-22T12:23:06;101937.97;;;-0.22;100.00
36062;BME280;22123;52.412;20.970;2023-11-22T12:25:32;101920.88;;;-0.35;100.00
36062;BME280;22123;52.412;20.970;2023-11-22T12:27:58;101897.31;;;-0.41;100.00
36062;BME280;22123;52.412;20.970;2023-11-22T12:30:35;101918.63;;;-0.24;100.00